Latest Weather Observations for Canterbury

IDN60901

Issued at 9:02 am EDT Thursday 29 January 2015 (issued every 10 minutes, with the page automatically refreshed every 10 minutes)

About weather observations | Map of Sydney area stations | Latest observations for Sydney area | Other Formats
Station Details ID: 066194 Name: CANTERBURY RACECOURSE AWS Lat: -33.91 Lon: 151.11 Height: 3.0 m
Data from the previous 72 hours. | See also: Recent months at Canterbury
Date/Time
EDT
Tmp

°C
App
Tmp
°C
Dew
Point
°C
Rel
Hum
%
Delta-T

°C
Wind Press
QNH
hPa
Press
MSL
hPa
Rain
since
9 am
mm
Dir
 
Spd
km/h
Gust
km/h
Spd
kts
Gust
kts
29/09:00am 18.4 14.9 8.9 54 4.9 SSW 17 24 9 13 - - 8.0
29/08:30am 17.4 13.1 8.0 54 4.8 SW 20 28 11 15 - - 8.0
29/08:00am 16.3 14.0 9.0 62 3.8 WSW 11 17 6 9 - - 8.0
29/07:30am 15.8 13.3 9.7 67 3.2 WSW 13 20 7 11 - - 8.0
29/07:00am 14.5 12.9 10.3 76 2.2 WSW 9 17 5 9 - - 8.0
29/06:30am 13.2 12.1 10.0 81 1.6 W 6 11 3 6 - - 8.0
29/06:00am 13.7 12.0 9.9 78 2.0 - 9 15 5 8 - - 8.0
29/05:30am 13.6 12.1 10.4 81 1.7 WSW 9 13 5 7 - - 8.0
29/05:00am 13.6 12.1 10.4 81 1.7 W 9 15 5 8 - - 8.0
29/04:30am 13.8 11.9 10.6 81 1.7 WSW 11 17 6 9 - - 8.0
29/04:00am 14.1 12.3 10.7 80 1.8 WSW 11 17 6 9 - - 8.0
29/03:30am 14.3 12.5 10.9 80 1.8 WSW 11 17 6 9 - - 8.0
29/03:00am 14.4 12.6 10.8 79 1.9 WSW 11 17 6 9 - - 8.0
29/02:30am 14.7 13.3 10.9 78 2.0 WSW 9 15 5 8 - - 8.0
29/02:00am 15.0 13.7 11.2 78 2.0 WSW 9 13 5 7 - - 8.0
29/01:30am 15.0 13.7 11.2 78 2.0 WSW 9 13 5 7 - - 8.0
29/01:00am 14.9 13.6 11.1 78 2.0 WSW 9 13 5 7 - - 8.0
29/12:30am 14.8 13.9 11.2 79 1.9 W 7 11 4 6 - - 8.0
29/12:00am 15.3 13.6 11.3 77 2.1 - 11 13 6 7 - - 8.0
 
Date/Time
EDT
Tmp

°C
App
Tmp
°C
Dew
Point
°C
Rel
Hum
%
Delta-T

°C
Wind Press
QNH
hPa
Press
MSL
hPa
Rain
since
9 am
mm
Dir
 
Spd
km/h
Gust
km/h
Spd
kts
Gust
kts
28/11:30pm 15.5 14.2 11.3 76 2.3 WSW 9 13 5 7 - - 8.0
28/11:00pm 16.1 14.8 11.3 73 2.6 WSW 9 17 5 9 - - 8.0
28/10:30pm 16.4 14.8 11.6 73 2.6 - 11 15 6 8 - - 8.0
28/10:00pm 17.2 16.0 11.7 70 3.0 SW 9 15 5 8 - - 8.0
28/09:30pm 17.5 15.5 11.5 68 3.3 SW 13 19 7 10 - - 8.0
28/09:00pm 17.9 16.1 12.1 69 3.2 SSW 13 20 7 11 - - 8.0
28/08:30pm 18.0 16.4 12.9 72 2.9 SSW 13 20 7 11 - - 8.0
28/08:00pm 18.1 16.6 13.0 72 2.9 SSW 13 20 7 11 - - 8.0
28/07:30pm 18.3 15.4 13.0 71 3.0 SSW 20 32 11 17 - - 8.0
28/07:06pm 19.0 14.4 12.3 65 3.7 S 28 46 15 25 - - 8.0
28/07:00pm 19.3 15.8 12.1 63 4.0 S 22 37 12 20 - - 8.0
28/06:30pm 20.4 17.7 13.4 64 4.0 S 20 32 11 17 - - 8.0
28/06:00pm 20.1 17.2 12.3 61 4.4 - 19 30 10 16 - - 8.0
28/05:30pm 20.2 18.5 14.8 71 3.2 SSE 17 26 9 14 - - 8.0
28/05:00pm 19.1 16.0 13.5 70 3.2 S 22 33 12 18 - - 8.0
28/04:30pm 19.1 17.7 14.6 75 2.6 SSW 15 22 8 12 - - 8.0
28/04:00pm 19.7 18.0 14.7 73 2.9 SE 17 22 9 12 - - 8.0
28/03:30pm 20.0 18.2 14.4 70 3.3 S 17 30 9 16 - - 8.0
28/03:00pm 19.4 18.9 14.9 75 2.6 SSE 11 20 6 11 - - 8.0
28/02:30pm 18.6 17.3 15.7 83 1.7 S 17 28 9 15 - - 7.4
28/02:09pm 17.7 16.6 15.3 86 1.4 SSE 15 24 8 13 - - 6.8
28/02:00pm 17.7 17.0 15.5 87 1.3 SE 13 24 7 13 - - 6.6
28/01:43pm 18.0 18.1 15.6 86 1.4 SW 9 19 5 10 - - 6.0
28/01:30pm 18.3 19.6 16.1 87 1.3 SW 4 7 2 4 - - 5.6
28/01:25pm 18.0 19.4 16.3 90 1.0 S 4 7 2 4 - - 5.6
28/01:01pm 17.4 17.5 15.4 88 1.2 S 9 13 5 7 - - 4.6
28/01:00pm 17.5 17.6 15.5 88 1.2 S 9 13 5 7 - - 4.6
28/12:37pm 17.3 16.9 15.1 87 1.3 SSE 11 20 6 11 - - 4.4
28/12:30pm 17.2 16.0 15.0 87 1.3 SE 15 20 8 11 - - 4.2
28/12:18pm 17.1 16.3 15.1 88 1.2 SSW 13 22 7 12 - - 3.8
28/12:03pm 17.4 18.1 15.6 89 1.1 SSW 6 11 3 6 - - 3.8
28/12:00pm 17.4 17.9 15.6 89 1.1 SSW 7 11 4 6 - - 3.6
28/11:44am 17.0 14.1 14.1 83 1.7 SSE 22 41 12 22 - - 3.4
28/11:41am 17.4 15.2 14.3 82 1.8 SSE 19 41 10 22 - - 3.2
28/11:30am 18.1 18.9 15.9 87 1.3 S 6 9 3 5 - - 3.2
28/11:00am 17.8 18.5 16.1 90 1.0 SW 7 9 4 5 - - 3.0
28/10:45am 17.5 18.1 15.7 89 1.1 S 7 11 4 6 - - 2.8
28/10:30am 17.3 16.6 15.5 89 1.1 S 13 20 7 11 - - 2.4
28/10:26am 17.3 17.1 15.8 91 0.9 S 11 20 6 11 - - 2.2
28/10:13am 17.3 16.8 15.8 91 0.9 S 13 19 7 10 - - 2.0
28/10:00am 17.1 16.4 15.4 90 1.0 S 13 20 7 11 - - 1.6
28/09:50am 17.3 16.3 15.5 89 1.1 SSE 15 22 8 12 - - 1.4
28/09:30am 17.4 17.3 15.9 91 0.9 S 11 15 6 8 - - 1.0
28/09:10am 17.2 15.7 15.2 88 1.2 SE 17 28 9 15 - - 0.4
28/09:00am 17.2 15.9 15.7 91 0.9 SSE 17 24 9 13 - - 63.8
28/08:30am 17.3 16.9 16.2 93 0.7 SSE 13 20 7 11 - - 62.2
28/08:00am 17.2 17.9 16.2 94 0.6 S 7 15 4 8 - - 60.4
28/07:30am 17.1 16.3 16.1 94 0.6 SE 15 22 8 12 - - 58.6
28/07:00am 16.6 16.7 15.5 93 0.6 SW 9 13 5 7 - - 56.6
28/06:48am 16.7 16.8 15.6 93 0.6 SW 9 17 5 9 - - 56.4
28/06:30am 16.8 16.6 15.7 93 0.6 SW 11 15 6 8 - - 56.2
28/06:24am 16.8 16.6 15.7 93 0.6 WSW 11 17 6 9 - - 56.0
28/06:20am 16.9 17.2 15.9 94 0.6 WSW 9 17 5 9 - - 55.8
28/06:00am 16.8 16.6 15.7 93 0.6 SSE 11 17 6 9 - - 54.4
28/05:30am 17.0 17.2 15.7 92 0.8 S 9 13 5 7 - - 52.2
28/05:04am 17.3 17.4 15.6 90 1.0 SSE 9 15 5 8 - - 51.4
28/05:00am 17.5 17.7 15.8 90 1.0 SSE 9 15 5 8 - - 51.2
28/04:30am 17.6 17.4 15.8 89 1.1 SSE 11 19 6 10 - - 51.2
28/04:00am 17.3 17.1 15.8 91 0.9 S 11 15 6 8 - - 51.2
28/03:30am 17.2 17.8 15.9 92 0.8 WSW 7 9 4 5 - - 51.2
28/03:00am 17.3 18.2 16.0 92 0.8 SW 6 7 3 4 - - 51.2
28/02:30am 17.3 17.7 16.2 93 0.7 S 9 17 5 9 - - 51.2
28/02:00am 17.4 18.2 16.4 94 0.6 S 7 13 4 7 - - 50.8
28/01:30am 17.3 18.3 16.3 94 0.6 S 6 9 3 5 - - 50.8
28/01:24am 17.2 18.5 16.2 94 0.6 SSE 4 7 2 4 - - 50.6
28/01:00am 17.1 17.4 16.0 93 0.6 ESE 9 13 5 7 - - 48.0
28/12:32am 17.6 18.1 16.6 94 0.6 SSW 9 13 5 7 - - 43.2
28/12:30am 17.6 18.1 16.6 94 0.6 SW 9 11 5 6 - - 43.2
28/12:14am 17.6 18.7 16.6 94 0.6 SW 6 11 3 6 - - 43.0
28/12:00am 17.6 19.5 16.6 94 0.6 S 2 7 1 4 - - 42.8
 
Date/Time
EDT
Tmp

°C
App
Tmp
°C
Dew
Point
°C
Rel
Hum
%
Delta-T

°C
Wind Press
QNH
hPa
Press
MSL
hPa
Rain
since
9 am
mm
Dir
 
Spd
km/h
Gust
km/h
Spd
kts
Gust
kts
27/11:43pm 17.5 18.0 16.5 94 0.6 SSW 9 13 5 7 - - 42.4
27/11:30pm 17.4 18.2 16.3 93 0.7 SSW 7 11 4 6 - - 42.0
27/11:20pm 17.3 18.0 16.2 93 0.7 SW 7 11 4 6 - - 42.0
27/11:07pm 17.2 18.1 16.2 94 0.6 S 6 7 3 4 - - 42.0
27/11:00pm 17.2 18.1 16.1 93 0.7 S 6 9 3 5 - - 41.8
27/10:39pm 17.2 18.1 16.2 94 0.6 SSE 6 7 3 4 - - 41.8
27/10:30pm 17.2 18.1 16.1 93 0.7 SSE 6 7 3 4 - - 41.8
27/10:00pm 17.4 17.0 16.1 92 0.8 SE 13 19 7 10 - - 40.0
27/09:41pm 17.9 18.5 16.8 93 0.7 SSE 9 17 5 9 - - 37.6
27/09:30pm 17.9 18.9 16.8 93 0.7 S 7 11 4 6 - - 37.4
27/09:00pm 18.1 20.1 16.9 93 0.7 SE 2 7 1 4 - - 37.2
27/08:30pm 18.1 19.1 16.9 93 0.7 SE 7 9 4 5 - - 37.2
27/08:16pm 18.1 19.2 17.1 94 0.6 SE 7 11 4 6 - - 37.2
27/08:00pm 18.1 19.1 16.9 93 0.7 SE 7 9 4 5 - - 37.2
27/07:35pm 18.1 19.7 16.9 93 0.7 SSE 4 9 2 5 - - 36.6
27/07:30pm 18.1 20.4 16.8 92 0.8 CALM 0 4 0 2 - - 36.4
27/07:00pm 18.2 19.3 17.0 93 0.7 SW 7 9 4 5 - - 36.2
27/06:40pm 18.0 19.2 16.9 93 0.7 SSW 6 7 3 4 - - 36.2
27/06:30pm 18.0 20.0 16.9 93 0.7 SSW 2 7 1 4 - - 36.2
27/06:08pm 18.0 20.0 16.9 93 0.7 WSW 2 7 1 4 - - 35.0
27/06:00pm 17.9 20.1 16.6 92 0.8 CALM 0 0 0 0 - - 35.0
27/05:31pm 17.8 20.1 16.8 94 0.6 CALM 0 4 0 2 - - 35.0
27/05:30pm 17.8 20.1 16.8 94 0.6 CALM 0 2 0 1 - - 35.0
27/05:00pm 17.6 18.1 16.5 93 0.7 NNE 9 17 5 9 - - 33.0
27/04:36pm 18.5 19.5 16.8 90 1.0 ENE 7 9 4 5 - - 19.4
27/04:30pm 18.8 20.0 17.3 91 0.9 ESE 7 11 4 6 - - 18.6
27/04:00pm 18.4 18.7 17.1 92 0.8 SSE 11 19 6 10 - - 18.4
27/03:52pm 18.4 18.4 17.2 93 0.7 SE 13 20 7 11 - - 18.4
27/03:30pm 18.2 17.7 16.9 92 0.8 SSE 15 22 8 12 - - 18.4
27/03:17pm 18.5 17.6 16.8 90 1.0 SSE 17 24 9 13 - - 16.6
27/03:00pm 19.0 18.6 17.1 89 1.2 SSE 15 22 8 12 - - 16.4
27/02:30pm 19.7 19.5 17.5 87 1.3 SE 15 22 8 12 - - 16.4
27/02:00pm 19.1 19.5 17.2 89 1.2 ESE 11 19 6 10 - - 16.4
27/01:30pm 18.7 18.2 17.0 90 1.0 SE 15 20 8 11 - - 15.6
27/01:01pm 18.8 18.1 17.3 91 0.9 ESE 17 24 9 13 - - 15.0
27/01:00pm 18.9 18.2 17.4 91 0.9 ESE 17 24 9 13 - - 15.0
27/12:48pm 18.8 18.5 17.3 91 0.9 ESE 15 20 8 11 - - 14.6
27/12:30pm 18.8 18.5 17.3 91 0.9 E 15 20 8 11 - - 14.2
27/12:13pm 18.8 19.3 17.5 92 0.8 E 11 15 6 8 - - 14.0
27/12:00pm 18.7 19.5 17.4 92 0.8 E 9 15 5 8 - - 13.8
27/11:51am 18.7 19.1 17.2 91 0.9 ENE 11 17 6 9 - - 13.2
27/11:30am 19.0 19.6 17.7 92 0.8 ENE 11 15 6 8 - - 12.8
27/11:15am 18.8 20.3 17.6 93 0.7 E 6 11 3 6 - - 12.8
27/11:00am 18.5 18.5 17.2 92 0.8 E 13 17 7 9 - - 12.6
27/10:52am 18.6 19.1 17.4 93 0.7 E 11 17 6 9 - - 12.2
27/10:41am 18.5 18.5 17.3 93 0.7 E 13 19 7 10 - - 11.6
27/10:30am 18.5 18.9 17.3 93 0.7 E 11 20 6 11 - - 11.6
27/10:00am 18.5 18.6 17.5 94 0.6 E 13 17 7 9 - - 10.4
27/09:30am 18.3 18.3 17.3 94 0.6 E 13 19 7 10 - - 6.8
27/09:00am 18.4 19.2 17.4 94 0.6 E 9 13 5 7 - - 34.6
27/08:33am 18.6 18.3 17.4 93 0.7 SSE 15 22 8 12 - - 27.8
27/08:30am 18.5 18.2 17.3 93 0.7 SSE 15 22 8 12 - - 27.8
27/08:27am 18.6 18.8 17.6 94 0.6 SSE 13 22 7 12 - - 27.8
27/08:11am 18.5 18.6 17.5 94 0.6 SSE 13 22 7 12 - - 27.6
27/08:00am 18.3 18.3 17.3 94 0.6 SSE 13 20 7 11 - - 27.6
27/07:30am 18.2 17.8 17.2 94 0.6 SSE 15 22 8 12 - - 27.6
27/07:17am 18.2 18.2 17.2 94 0.6 SSE 13 22 7 12 - - 27.6
27/07:00am 18.2 17.8 17.2 94 0.6 SSE 15 22 8 12 - - 27.6
27/06:59am 18.2 17.8 17.2 94 0.6 SSE 15 22 8 12 - - 27.6
27/06:43am 18.3 17.6 17.3 94 0.6 SSE 17 26 9 14 - - 27.4
27/06:30am 18.3 18.0 17.3 94 0.6 SSE 15 24 8 13 - - 27.4
27/06:00am 18.5 18.6 17.5 94 0.6 SSE 13 20 7 11 - - 27.0
27/05:30am 18.5 19.0 17.5 94 0.6 SSE 11 17 6 9 - - 25.8
27/05:23am 18.5 19.4 17.5 94 0.6 SSE 9 17 5 9 - - 25.6
27/05:00am 18.4 18.9 17.4 94 0.6 SSE 11 17 6 9 - - 25.4
27/04:30am 18.5 19.4 17.5 94 0.6 SSE 9 15 5 8 - - 25.4
27/04:00am 18.4 19.6 17.4 94 0.6 SSE 7 48 4 26 - - 25.4
27/03:59am 18.4 19.6 17.4 94 0.6 SSE 7 48 4 26 - - 25.4
27/03:30am 18.5 19.1 17.7 95 0.5 SE 11 15 6 8 - - 25.0
27/03:12am 18.4 19.2 17.4 94 0.6 ESE 9 13 5 7 - - 23.8
27/03:03am 18.4 19.6 17.4 94 0.6 ESE 7 11 4 6 - - 23.6
27/03:00am 18.4 19.7 17.6 95 0.5 SE 7 11 4 6 - - 23.6
27/02:30am 18.3 18.7 17.3 94 0.6 E 11 17 6 9 - - 21.6
27/02:00am 18.4 18.9 17.4 94 0.6 ESE 11 24 6 13 - - 15.8
27/01:30am 18.6 18.8 17.6 94 0.6 SSE 13 17 7 9 - - 9.6
27/01:00am 18.5 19.6 17.2 92 0.8 E 7 13 4 7 - - 5.2
27/12:57am 18.5 19.6 17.2 92 0.8 ESE 7 15 4 8 - - 5.2
27/12:30am 18.4 18.4 17.1 92 0.8 S 13 22 7 12 - - 4.8
27/12:00am 18.4 18.7 16.9 91 0.9 SSE 11 17 6 9 - - 4.8
 
Date/Time
EDT
Tmp

°C
App
Tmp
°C
Dew
Point
°C
Rel
Hum
%
Delta-T

°C
Wind Press
QNH
hPa
Press
MSL
hPa
Rain
since
9 am
mm
Dir
 
Spd
km/h
Gust
km/h
Spd
kts
Gust
kts
26/11:53pm 18.5 18.5 17.2 92 0.8 SE 13 17 7 9 - - 4.8
26/11:33pm 18.6 20.0 17.3 92 0.8 SE 6 9 3 5 - - 4.6
26/11:30pm 18.6 20.0 17.3 92 0.8 SE 6 9 3 5 - - 4.6
26/11:24pm 18.6 20.0 17.3 92 0.8 SE 6 9 3 5 - - 4.4
26/11:02pm 18.5 19.2 17.0 91 0.9 ESE 9 13 5 7 - - 3.2
26/11:00pm 18.6 19.3 17.1 91 0.9 SE 9 13 5 7 - - 2.4
26/10:55pm 18.6 19.3 17.1 91 0.9 SSE 9 13 5 7 - - 2.4
26/10:30pm 18.6 18.3 17.3 92 0.8 SSE 15 20 8 11 - - 2.2
26/10:00pm 18.4 19.1 17.1 92 0.8 S 9 15 5 8 - - 2.2
26/09:52pm 18.4 19.2 17.2 93 0.7 S 9 13 5 7 - - 2.2
26/09:30pm 18.4 19.5 17.1 92 0.8 SSW 7 11 4 6 - - 2.0
26/09:26pm 18.4 19.5 17.1 92 0.8 S 7 11 4 6 - - 2.0
26/09:00pm 18.5 19.9 17.3 93 0.7 SSE 6 11 3 6 - - 2.0
26/08:34pm 18.2 18.6 17.2 94 0.6 SE 11 15 6 8 - - 2.0
26/08:30pm 18.1 18.4 17.1 94 0.6 SSE 11 15 6 8 - - 2.0
26/08:00pm 18.0 18.3 16.9 93 0.7 SSE 11 17 6 9 - - 1.6
26/07:30pm 18.0 18.3 16.9 93 0.7 SSE 11 17 6 9 - - 1.2
26/07:02pm 17.8 17.1 16.3 91 0.9 S 15 22 8 12 - - 0.6
26/07:00pm 17.8 16.7 16.3 91 0.9 S 17 24 9 13 - - 0.6
26/06:47pm 18.0 17.0 16.5 91 0.9 S 17 28 9 15 - - 0.6
26/06:30pm 17.9 17.6 16.4 91 0.9 S 13 20 7 11 - - 0.6
26/06:00pm 18.2 17.8 16.2 88 1.2 S 13 20 7 11 - - 0.0
26/05:52pm 18.2 16.4 15.6 85 1.5 S 19 30 10 16 - - 0.0
26/05:30pm 18.8 16.9 15.7 82 1.8 S 20 30 11 16 - - 0.0
26/05:00pm 19.3 17.3 15.0 76 2.5 S 19 30 10 16 - - 0.0
26/04:30pm 18.8 17.2 15.1 79 2.2 S 17 26 9 14 - - 0.0
26/04:00pm 18.8 16.9 15.1 79 2.2 S 19 32 10 17 - - 0.0
26/03:30pm 18.8 17.3 15.3 80 2.1 S 17 28 9 15 - - 0.0
26/03:00pm 19.5 17.6 15.2 76 2.5 S 19 26 10 14 - - 0.0
26/02:30pm 18.8 17.4 15.5 81 1.9 S 17 24 9 13 - - 0.0
26/02:08pm 18.5 17.1 15.6 83 1.7 S 17 32 9 17 - - 0.0
26/02:00pm 18.8 17.6 16.0 84 1.7 S 17 24 9 13 - - 0.0
26/01:40pm 18.8 16.8 15.5 81 1.9 S 20 32 11 17 - - 0.0
26/01:30pm 19.7 17.7 15.4 76 2.5 S 20 30 11 16 - - 0.0
26/01:00pm 19.7 17.8 15.1 75 2.7 SSE 19 28 10 15 - - 0.0
26/12:30pm 19.5 17.8 15.8 79 2.2 SSE 19 30 10 16 - - 0.0
26/12:00pm 19.1 17.2 15.8 81 2.0 SSE 20 32 11 17 - - 0.0
26/11:30am 20.2 18.7 15.4 74 2.8 SSE 17 26 9 14 - - 0.0
26/11:00am 20.2 18.9 14.8 71 3.2 S 15 24 8 13 - - 0.0
26/10:30am 20.0 18.4 15.0 73 2.9 S 17 24 9 13 - - 0.0
26/10:00am 19.6 17.4 15.0 75 2.7 S 20 28 11 15 - - 0.0
26/09:30am 19.5 17.7 15.6 78 2.3 S 19 28 10 15 - - 0.0

Latest Capital City Observations: Canberra | Sydney | Melbourne | Brisbane | Adelaide | Perth | Hobart | Darwin

Other Formats:

Comma delimited format used in spreadsheet applications
http://www.bom.gov.au/fwo/IDN60901/IDN60901.94766.axf

JavaScript Object Notation format (JSON) in row-major order
http://www.bom.gov.au/fwo/IDN60901/IDN60901.94766.json